sensor_id;sensor_type;location;lat;lon;timestamp;P1;durP1;ratioP1;P2;durP2;ratioP2
34988;SDS011;21192;40.182;44.516;2023-02-07T00:01:12;12.63;;;8.82;;
34988;SDS011;21192;40.182;44.516;2023-02-07T00:03:40;13.63;;;8.95;;
34988;SDS011;21192;40.182;44.516;2023-02-07T00:06:08;11.77;;;8.50;;
34988;SDS011;21192;40.182;44.516;2023-02-07T00:08:36;15.70;;;9.35;;
34988;SDS011;21192;40.182;44.516;2023-02-07T00:11:06;13.13;;;8.75;;
34988;SDS011;21192;40.182;44.516;2023-02-07T00:13:37;11.73;;;9.00;;
34988;SDS011;21192;40.182;44.516;2023-02-07T00:16:04;14.82;;;8.45;;
34988;SDS011;21192;40.182;44.516;2023-02-07T00:18:31;12.68;;;8.50;;
34988;SDS011;21192;40.182;44.516;2023-02-07T00:21:11;10.43;;;8.43;;
34988;SDS011;21192;40.182;44.516;2023-02-07T00:23:39;11.57;;;8.18;;
34988;SDS011;21192;40.182;44.516;2023-02-07T00:26:06;11.98;;;7.82;;
34988;SDS011;21192;40.182;44.516;2023-02-07T00:28:33;11.98;;;9.13;;
34988;SDS011;21192;40.182;44.516;2023-02-07T00:31:09;11.50;;;8.60;;
34988;SDS011;21192;40.182;44.516;2023-02-07T00:33:38;10.88;;;8.55;;
34988;SDS011;21192;40.182;44.516;2023-02-07T00:36:06;10.38;;;8.02;;
34988;SDS011;21192;40.182;44.516;2023-02-07T00:38:33;8.50;;;6.55;;
34988;SDS011;21192;40.182;44.516;2023-02-07T00:40:59;10.38;;;6.45;;
34988;SDS011;21192;40.182;44.516;2023-02-07T00:43:28;9.15;;;6.65;;
34988;SDS011;21192;40.182;44.516;2023-02-07T00:45:55;10.48;;;6.78;;
34988;SDS011;21192;40.182;44.516;2023-02-07T00:48:23;9.68;;;6.60;;
34988;SDS011;21192;40.182;44.516;2023-02-07T00:50:50;9.60;;;6.35;;
34988;SDS011;21192;40.182;44.516;2023-02-07T00:53:15;10.43;;;6.70;;
34988;SDS011;21192;40.182;44.516;2023-02-07T00:55:41;10.23;;;7.95;;
34988;SDS011;21192;40.182;44.516;2023-02-07T00:58:07;11.20;;;7.28;;
34988;SDS011;21192;40.182;44.516;2023-02-07T01:00:33;9.77;;;7.25;;
34988;SDS011;21192;40.182;44.516;2023-02-07T01:02:59;9.45;;;7.45;;
34988;SDS011;21192;40.182;44.516;2023-02-07T01:05:24;9.93;;;7.40;;
34988;SDS011;21192;40.182;44.516;2023-02-07T01:07:50;9.85;;;7.72;;
34988;SDS011;21192;40.182;44.516;2023-02-07T01:10:16;10.30;;;7.20;;
34988;SDS011;21192;40.182;44.516;2023-02-07T01:12:42;12.02;;;7.38;;
34988;SDS011;21192;40.182;44.516;2023-02-07T01:15:08;9.90;;;7.38;;
34988;SDS011;21192;40.182;44.516;2023-02-07T01:17:34;10.45;;;8.02;;
34988;SDS011;21192;40.182;44.516;2023-02-07T01:20:00;12.15;;;7.80;;
34988;SDS011;21192;40.182;44.516;2023-02-07T01:22:26;15.18;;;8.90;;
34988;SDS011;21192;40.182;44.516;2023-02-07T01:24:53;12.63;;;7.68;;
34988;SDS011;21192;40.182;44.516;2023-02-07T01:27:22;12.77;;;8.40;;
34988;SDS011;21192;40.182;44.516;2023-02-07T01:29:49;10.35;;;7.85;;
34988;SDS011;21192;40.182;44.516;2023-02-07T01:32:15;11.05;;;6.68;;
34988;SDS011;21192;40.182;44.516;2023-02-07T01:34:41;9.38;;;6.97;;
34988;SDS011;21192;40.182;44.516;2023-02-07T01:37:07;11.35;;;6.72;;
34988;SDS011;21192;40.182;44.516;2023-02-07T01:39:33;10.57;;;6.88;;
34988;SDS011;21192;40.182;44.516;2023-02-07T01:41:59;8.82;;;6.80;;
34988;SDS011;21192;40.182;44.516;2023-02-07T01:46:51;7.90;;;6.68;;
34988;SDS011;21192;40.182;44.516;2023-02-07T01:49:22;12.43;;;7.40;;
34988;SDS011;21192;40.182;44.516;2023-02-07T01:51:57;11.02;;;6.90;;
34988;SDS011;21192;40.182;44.516;2023-02-07T01:54:28;9.18;;;7.47;;
34988;SDS011;21192;40.182;44.516;2023-02-07T01:56:59;9.13;;;7.03;;
34988;SDS011;21192;40.182;44.516;2023-02-07T01:59:28;8.45;;;6.93;;
34988;SDS011;21192;40.182;44.516;2023-02-07T02:01:55;12.13;;;7.50;;
34988;SDS011;21192;40.182;44.516;2023-02-07T02:04:23;10.32;;;7.05;;
34988;SDS011;21192;40.182;44.516;2023-02-07T02:06:50;8.77;;;7.00;;
34988;SDS011;21192;40.182;44.516;2023-02-07T02:09:16;11.75;;;6.90;;
34988;SDS011;21192;40.182;44.516;2023-02-07T02:14:37;11.25;;;7.53;;
34988;SDS011;21192;40.182;44.516;2023-02-07T02:17:10;11.32;;;7.20;;
34988;SDS011;21192;40.182;44.516;2023-02-07T02:28:17;9.98;;;7.03;;
34988;SDS011;21192;40.182;44.516;2023-02-07T02:39:09;10.65;;;7.28;;
34988;SDS011;21192;40.182;44.516;2023-02-07T02:42:18;11.27;;;7.25;;
34988;SDS011;21192;40.182;44.516;2023-02-07T02:47:21;11.20;;;5.80;;
34988;SDS011;21192;40.182;44.516;2023-02-07T02:49:50;13.15;;;6.30;;
34988;SDS011;21192;40.182;44.516;2023-02-07T02:52:16;11.68;;;6.40;;
34988;SDS011;21192;40.182;44.516;2023-02-07T02:54:42;12.65;;;5.97;;
34988;SDS011;21192;40.182;44.516;2023-02-07T03:10:57;10.13;;;4.93;;
34988;SDS011;21192;40.182;44.516;2023-02-07T03:15:59;12.15;;;4.78;;
34988;SDS011;21192;40.182;44.516;2023-02-07T03:21:29;15.02;;;8.65;;
34988;SDS011;21192;40.182;44.516;2023-02-07T03:24:01;11.90;;;8.55;;
34988;SDS011;21192;40.182;44.516;2023-02-07T03:26:33;13.48;;;8.73;;
34988;SDS011;21192;40.182;44.516;2023-02-07T03:29:00;12.35;;;9.95;;
34988;SDS011;21192;40.182;44.516;2023-02-07T03:31:29;13.02;;;9.27;;
34988;SDS011;21192;40.182;44.516;2023-02-07T03:33:58;14.07;;;9.75;;
34988;SDS011;21192;40.182;44.516;2023-02-07T03:36:32;13.50;;;10.20;;
34988;SDS011;21192;40.182;44.516;2023-02-07T03:39:04;13.02;;;10.00;;
34988;SDS011;21192;40.182;44.516;2023-02-07T03:41:33;16.08;;;11.50;;
34988;SDS011;21192;40.182;44.516;2023-02-07T03:44:21;15.32;;;10.38;;
34988;SDS011;21192;40.182;44.516;2023-02-07T03:46:49;15.52;;;10.65;;
34988;SDS011;21192;40.182;44.516;2023-02-07T03:49:16;18.00;;;10.27;;
34988;SDS011;21192;40.182;44.516;2023-02-07T03:51:45;15.77;;;10.10;;
34988;SDS011;21192;40.182;44.516;2023-02-07T03:54:11;15.00;;;9.38;;
34988;SDS011;21192;40.182;44.516;2023-02-07T03:56:38;14.25;;;9.35;;
34988;SDS011;21192;40.182;44.516;2023-02-07T03:59:04;15.05;;;10.57;;
34988;SDS011;21192;40.182;44.516;2023-02-07T04:01:30;12.35;;;9.73;;
34988;SDS011;21192;40.182;44.516;2023-02-07T04:03:56;17.08;;;10.32;;
34988;SDS011;21192;40.182;44.516;2023-02-07T04:06:22;13.43;;;10.30;;
34988;SDS011;21192;40.182;44.516;2023-02-07T04:08:48;12.55;;;9.95;;
34988;SDS011;21192;40.182;44.516;2023-02-07T04:11:14;13.07;;;9.82;;
34988;SDS011;21192;40.182;44.516;2023-02-07T04:13:40;13.35;;;10.35;;
34988;SDS011;21192;40.182;44.516;2023-02-07T04:16:06;15.73;;;9.57;;
34988;SDS011;21192;40.182;44.516;2023-02-07T04:18:32;14.98;;;10.10;;
34988;SDS011;21192;40.182;44.516;2023-02-07T04:21:02;13.93;;;9.73;;
34988;SDS011;21192;40.182;44.516;2023-02-07T04:23:29;13.55;;;9.85;;
34988;SDS011;21192;40.182;44.516;2023-02-07T04:25:55;13.90;;;10.45;;
34988;SDS011;21192;40.182;44.516;2023-02-07T04:28:21;17.48;;;10.00;;
34988;SDS011;21192;40.182;44.516;2023-02-07T04:30:47;15.10;;;9.82;;
34988;SDS011;21192;40.182;44.516;2023-02-07T04:33:13;15.35;;;11.02;;
34988;SDS011;21192;40.182;44.516;2023-02-07T04:35:38;15.52;;;10.60;;
34988;SDS011;21192;40.182;44.516;2023-02-07T04:38:04;18.17;;;12.30;;
34988;SDS011;21192;40.182;44.516;2023-02-07T04:40:30;18.48;;;12.02;;
34988;SDS011;21192;40.182;44.516;2023-02-07T04:42:56;13.80;;;7.75;;
34988;SDS011;21192;40.182;44.516;2023-02-07T04:45:22;17.27;;;9.95;;
34988;SDS011;21192;40.182;44.516;2023-02-07T04:47:48;15.55;;;9.30;;
34988;SDS011;21192;40.182;44.516;2023-02-07T04:50:14;14.63;;;8.55;;
34988;SDS011;21192;40.182;44.516;2023-02-07T04:52:40;16.42;;;8.60;;
34988;SDS011;21192;40.182;44.516;2023-02-07T04:55:07;14.23;;;7.90;;
34988;SDS011;21192;40.182;44.516;2023-02-07T04:57:33;13.05;;;7.93;;
34988;SDS011;21192;40.182;44.516;2023-02-07T05:00:00;15.10;;;8.25;;
34988;SDS011;21192;40.182;44.516;2023-02-07T05:02:26;14.77;;;9.00;;
34988;SDS011;21192;40.182;44.516;2023-02-07T05:04:52;16.33;;;9.18;;
34988;SDS011;21192;40.182;44.516;2023-02-07T05:07:18;19.40;;;9.40;;
34988;SDS011;21192;40.182;44.516;2023-02-07T05:09:43;19.60;;;9.73;;
34988;SDS011;21192;40.182;44.516;2023-02-07T05:12:09;14.30;;;9.52;;
34988;SDS011;21192;40.182;44.516;2023-02-07T05:14:35;18.88;;;12.07;;
34988;SDS011;21192;40.182;44.516;2023-02-07T05:17:01;21.85;;;10.77;;
34988;SDS011;21192;40.182;44.516;2023-02-07T05:19:27;24.92;;;13.10;;
34988;SDS011;21192;40.182;44.516;2023-02-07T05:21:52;28.10;;;14.32;;
34988;SDS011;21192;40.182;44.516;2023-02-07T05:24:18;45.15;;;31.25;;
34988;SDS011;21192;40.182;44.516;2023-02-07T05:26:44;25.25;;;14.48;;
34988;SDS011;21192;40.182;44.516;2023-02-07T05:29:10;34.42;;;25.63;;
34988;SDS011;21192;40.182;44.516;2023-02-07T05:31:36;18.20;;;12.00;;
34988;SDS011;21192;40.182;44.516;2023-02-07T05:34:20;26.20;;;12.98;;
34988;SDS011;21192;40.182;44.516;2023-02-07T05:36:47;17.50;;;11.77;;
34988;SDS011;21192;40.182;44.516;2023-02-07T05:39:13;26.02;;;13.80;;
34988;SDS011;21192;40.182;44.516;2023-02-07T05:41:39;22.98;;;13.18;;
34988;SDS011;21192;40.182;44.516;2023-02-07T05:44:05;24.13;;;15.80;;
34988;SDS011;21192;40.182;44.516;2023-02-07T05:46:31;29.08;;;17.00;;
34988;SDS011;21192;40.182;44.516;2023-02-07T05:48:57;30.90;;;16.85;;
34988;SDS011;21192;40.182;44.516;2023-02-07T05:51:22;29.38;;;18.02;;
34988;SDS011;21192;40.182;44.516;2023-02-07T05:53:48;23.92;;;17.33;;
34988;SDS011;21192;40.182;44.516;2023-02-07T05:56:14;27.73;;;17.30;;
34988;SDS011;21192;40.182;44.516;2023-02-07T05:58:40;37.80;;;30.15;;
34988;SDS011;21192;40.182;44.516;2023-02-07T06:01:06;47.30;;;25.52;;
34988;SDS011;21192;40.182;44.516;2023-02-07T06:03:31;36.53;;;19.88;;
34988;SDS011;21192;40.182;44.516;2023-02-07T06:05:57;19.73;;;13.95;;
34988;SDS011;21192;40.182;44.516;2023-02-07T06:08:23;27.50;;;15.93;;
34988;SDS011;21192;40.182;44.516;2023-02-07T06:10:49;20.73;;;15.15;;
34988;SDS011;21192;40.182;44.516;2023-02-07T06:13:15;22.67;;;14.68;;
34988;SDS011;21192;40.182;44.516;2023-02-07T06:15:40;28.48;;;15.73;;
34988;SDS011;21192;40.182;44.516;2023-02-07T06:18:06;24.50;;;15.68;;
34988;SDS011;21192;40.182;44.516;2023-02-07T06:20:32;26.35;;;15.13;;
34988;SDS011;21192;40.182;44.516;2023-02-07T06:22:58;19.85;;;13.88;;
34988;SDS011;21192;40.182;44.516;2023-02-07T06:25:24;26.38;;;15.35;;
34988;SDS011;21192;40.182;44.516;2023-02-07T06:27:49;33.53;;;17.27;;
34988;SDS011;21192;40.182;44.516;2023-02-07T06:30:15;28.00;;;17.70;;
34988;SDS011;21192;40.182;44.516;2023-02-07T06:32:41;24.50;;;16.58;;
34988;SDS011;21192;40.182;44.516;2023-02-07T06:35:07;20.92;;;15.25;;
34988;SDS011;21192;40.182;44.516;2023-02-07T06:37:33;23.60;;;13.55;;
34988;SDS011;21192;40.182;44.516;2023-02-07T06:39:59;37.58;;;15.93;;
34988;SDS011;21192;40.182;44.516;2023-02-07T06:42:25;15.70;;;9.10;;
34988;SDS011;21192;40.182;44.516;2023-02-07T06:44:51;12.05;;;6.40;;
34988;SDS011;21192;40.182;44.516;2023-02-07T06:47:17;19.75;;;6.70;;
34988;SDS011;21192;40.182;44.516;2023-02-07T06:49:45;10.73;;;5.38;;
34988;SDS011;21192;40.182;44.516;2023-02-07T06:52:11;9.02;;;5.25;;
34988;SDS011;21192;40.182;44.516;2023-02-07T06:54:37;10.27;;;4.78;;
34988;SDS011;21192;40.182;44.516;2023-02-07T06:57:03;12.02;;;5.18;;
34988;SDS011;21192;40.182;44.516;2023-02-07T06:59:29;10.55;;;6.30;;
34988;SDS011;21192;40.182;44.516;2023-02-07T07:01:55;16.13;;;8.63;;
34988;SDS011;21192;40.182;44.516;2023-02-07T07:04:21;19.52;;;9.50;;
34988;SDS011;21192;40.182;44.516;2023-02-07T07:06:47;13.20;;;5.63;;
34988;SDS011;21192;40.182;44.516;2023-02-07T07:09:14;17.65;;;5.88;;
34988;SDS011;21192;40.182;44.516;2023-02-07T07:11:40;16.73;;;6.75;;
34988;SDS011;21192;40.182;44.516;2023-02-07T07:14:10;16.45;;;8.57;;
34988;SDS011;21192;40.182;44.516;2023-02-07T07:16:39;18.45;;;9.80;;
34988;SDS011;21192;40.182;44.516;2023-02-07T07:19:05;25.70;;;14.05;;
34988;SDS011;21192;40.182;44.516;2023-02-07T07:21:31;24.77;;;12.25;;
34988;SDS011;21192;40.182;44.516;2023-02-07T07:23:57;18.48;;;8.70;;
34988;SDS011;21192;40.182;44.516;2023-02-07T07:26:23;18.73;;;8.52;;
34988;SDS011;21192;40.182;44.516;2023-02-07T07:28:49;16.85;;;8.73;;
34988;SDS011;21192;40.182;44.516;2023-02-07T07:31:15;27.23;;;11.80;;
34988;SDS011;21192;40.182;44.516;2023-02-07T07:33:41;18.90;;;7.63;;
34988;SDS011;21192;40.182;44.516;2023-02-07T07:36:07;14.50;;;7.05;;
34988;SDS011;21192;40.182;44.516;2023-02-07T07:38:33;17.35;;;6.35;;
34988;SDS011;21192;40.182;44.516;2023-02-07T07:40:59;15.30;;;6.45;;
34988;SDS011;21192;40.182;44.516;2023-02-07T07:43:25;33.10;;;17.27;;
34988;SDS011;21192;40.182;44.516;2023-02-07T07:45:52;21.80;;;12.52;;
34988;SDS011;21192;40.182;44.516;2023-02-07T07:48:21;15.75;;;5.90;;
34988;SDS011;21192;40.182;44.516;2023-02-07T07:50:48;24.85;;;11.38;;
34988;SDS011;21192;40.182;44.516;2023-02-07T07:53:15;18.10;;;7.30;;
34988;SDS011;21192;40.182;44.516;2023-02-07T07:55:44;10.88;;;4.97;;
34988;SDS011;21192;40.182;44.516;2023-02-07T07:58:16;13.27;;;6.20;;
34988;SDS011;21192;40.182;44.516;2023-02-07T08:00:42;26.08;;;13.05;;
34988;SDS011;21192;40.182;44.516;2023-02-07T08:03:08;14.90;;;6.82;;
34988;SDS011;21192;40.182;44.516;2023-02-07T08:05:35;16.92;;;7.38;;
34988;SDS011;21192;40.182;44.516;2023-02-07T08:08:01;20.95;;;7.18;;
34988;SDS011;21192;40.182;44.516;2023-02-07T08:10:26;28.65;;;12.70;;
34988;SDS011;21192;40.182;44.516;2023-02-07T08:12:52;18.88;;;9.63;;
34988;SDS011;21192;40.182;44.516;2023-02-07T08:15:18;14.82;;;7.13;;
34988;SDS011;21192;40.182;44.516;2023-02-07T08:17:44;22.90;;;8.65;;
34988;SDS011;21192;40.182;44.516;2023-02-07T08:20:10;15.85;;;7.20;;
34988;SDS011;21192;40.182;44.516;2023-02-07T08:22:37;19.48;;;7.70;;
34988;SDS011;21192;40.182;44.516;2023-02-07T08:25:03;24.02;;;7.85;;
34988;SDS011;21192;40.182;44.516;2023-02-07T08:27:29;20.38;;;7.72;;
34988;SDS011;21192;40.182;44.516;2023-02-07T08:29:55;24.38;;;8.60;;
34988;SDS011;21192;40.182;44.516;2023-02-07T08:32:21;26.05;;;9.30;;
34988;SDS011;21192;40.182;44.516;2023-02-07T08:34:47;23.45;;;7.65;;
34988;SDS011;21192;40.182;44.516;2023-02-07T08:37:13;46.95;;;12.05;;
34988;SDS011;21192;40.182;44.516;2023-02-07T08:39:39;29.88;;;9.30;;
34988;SDS011;21192;40.182;44.516;2023-02-07T08:42:06;23.95;;;6.63;;
34988;SDS011;21192;40.182;44.516;2023-02-07T08:44:32;23.70;;;6.57;;
34988;SDS011;21192;40.182;44.516;2023-02-07T08:46:58;25.15;;;7.50;;
34988;SDS011;21192;40.182;44.516;2023-02-07T08:49:24;22.70;;;7.32;;
34988;SDS011;21192;40.182;44.516;2023-02-07T08:51:50;23.27;;;7.65;;
34988;SDS011;21192;40.182;44.516;2023-02-07T08:54:17;23.55;;;8.15;;
34988;SDS011;21192;40.182;44.516;2023-02-07T08:56:43;22.30;;;7.43;;
34988;SDS011;21192;40.182;44.516;2023-02-07T08:59:09;21.63;;;6.40;;
34988;SDS011;21192;40.182;44.516;2023-02-07T09:01:35;22.55;;;7.35;;
34988;SDS011;21192;40.182;44.516;2023-02-07T09:04:01;28.95;;;8.38;;
34988;SDS011;21192;40.182;44.516;2023-02-07T09:06:27;25.83;;;9.50;;
34988;SDS011;21192;40.182;44.516;2023-02-07T09:08:53;25.33;;;9.75;;
34988;SDS011;21192;40.182;44.516;2023-02-07T09:11:19;31.77;;;13.55;;
34988;SDS011;21192;40.182;44.516;2023-02-07T09:13:45;27.98;;;8.45;;
34988;SDS011;21192;40.182;44.516;2023-02-07T09:16:11;32.75;;;7.60;;
34988;SDS011;21192;40.182;44.516;2023-02-07T09:18:38;29.25;;;7.15;;
34988;SDS011;21192;40.182;44.516;2023-02-07T09:21:04;30.85;;;7.50;;
34988;SDS011;21192;40.182;44.516;2023-02-07T09:23:31;37.17;;;8.40;;
34988;SDS011;21192;40.182;44.516;2023-02-07T09:26:00;33.22;;;8.48;;
34988;SDS011;21192;40.182;44.516;2023-02-07T09:28:28;31.90;;;7.50;;
34988;SDS011;21192;40.182;44.516;2023-02-07T09:30:54;46.15;;;8.05;;
34988;SDS011;21192;40.182;44.516;2023-02-07T09:33:20;37.65;;;7.25;;
34988;SDS011;21192;40.182;44.516;2023-02-07T09:35:49;35.65;;;7.15;;
34988;SDS011;21192;40.182;44.516;2023-02-07T09:38:17;37.80;;;7.93;;
34988;SDS011;21192;40.182;44.516;2023-02-07T09:40:45;51.95;;;9.32;;
34988;SDS011;21192;40.182;44.516;2023-02-07T09:43:28;46.83;;;7.80;;
34988;SDS011;21192;40.182;44.516;2023-02-07T09:46:05;46.50;;;8.52;;
34988;SDS011;21192;40.182;44.516;2023-02-07T09:48:45;46.83;;;7.82;;
34988;SDS011;21192;40.182;44.516;2023-02-07T09:51:16;45.30;;;10.65;;
34988;SDS011;21192;40.182;44.516;2023-02-07T09:53:46;57.55;;;10.73;;
34988;SDS011;21192;40.182;44.516;2023-02-07T09:56:24;48.63;;;10.18;;
34988;SDS011;21192;40.182;44.516;2023-02-07T09:59:02;53.33;;;8.43;;
34988;SDS011;21192;40.182;44.516;2023-02-07T10:01:36;52.47;;;9.57;;
34988;SDS011;21192;40.182;44.516;2023-02-07T10:04:12;49.25;;;10.30;;
34988;SDS011;21192;40.182;44.516;2023-02-07T10:06:43;46.75;;;9.38;;
34988;SDS011;21192;40.182;44.516;2023-02-07T10:09:16;48.65;;;9.23;;
34988;SDS011;21192;40.182;44.516;2023-02-07T10:11:44;46.53;;;9.18;;
34988;SDS011;21192;40.182;44.516;2023-02-07T10:14:26;60.40;;;11.20;;
34988;SDS011;21192;40.182;44.516;2023-02-07T10:17:22;52.40;;;10.13;;
34988;SDS011;21192;40.182;44.516;2023-02-07T10:20:11;43.63;;;8.05;;
34988;SDS011;21192;40.182;44.516;2023-02-07T10:23:04;47.03;;;7.72;;
34988;SDS011;21192;40.182;44.516;2023-02-07T10:25:51;42.50;;;7.32;;
34988;SDS011;21192;40.182;44.516;2023-02-07T10:31:16;54.75;;;7.32;;
34988;SDS011;21192;40.182;44.516;2023-02-07T10:33:46;53.60;;;7.90;;
34988;SDS011;21192;40.182;44.516;2023-02-07T10:36:16;64.50;;;10.20;;
34988;SDS011;21192;40.182;44.516;2023-02-07T10:41:36;78.13;;;10.23;;
34988;SDS011;21192;40.182;44.516;2023-02-07T10:44:08;80.75;;;11.75;;
34988;SDS011;21192;40.182;44.516;2023-02-07T10:46:42;75.10;;;10.90;;
34988;SDS011;21192;40.182;44.516;2023-02-07T10:49:19;85.32;;;11.77;;
34988;SDS011;21192;40.182;44.516;2023-02-07T10:51:47;80.05;;;12.13;;
34988;SDS011;21192;40.182;44.516;2023-02-07T10:54:18;65.25;;;10.60;;
34988;SDS011;21192;40.182;44.516;2023-02-07T10:56:55;87.00;;;10.30;;
34988;SDS011;21192;40.182;44.516;2023-02-07T10:59:39;76.50;;;11.23;;
34988;SDS011;21192;40.182;44.516;2023-02-07T11:05:24;94.40;;;14.25;;
34988;SDS011;21192;40.182;44.516;2023-02-07T11:07:55;76.18;;;10.63;;
34988;SDS011;21192;40.182;44.516;2023-02-07T11:10:28;75.22;;;11.98;;
34988;SDS011;21192;40.182;44.516;2023-02-07T11:13:01;84.30;;;11.93;;
34988;SDS011;21192;40.182;44.516;2023-02-07T11:15:35;74.30;;;13.70;;
34988;SDS011;21192;40.182;44.516;2023-02-07T11:21:02;81.75;;;10.80;;
34988;SDS011;21192;40.182;44.516;2023-02-07T11:23:32;76.25;;;10.88;;
34988;SDS011;21192;40.182;44.516;2023-02-07T11:25:58;65.25;;;10.02;;
34988;SDS011;21192;40.182;44.516;2023-02-07T11:28:28;69.45;;;9.40;;
34988;SDS011;21192;40.182;44.516;2023-02-07T11:30:56;62.67;;;9.35;;
34988;SDS011;21192;40.182;44.516;2023-02-07T11:33:27;66.70;;;9.20;;
34988;SDS011;21192;40.182;44.516;2023-02-07T11:36:02;61.63;;;7.03;;
34988;SDS011;21192;40.182;44.516;2023-02-07T11:38:31;65.70;;;8.40;;
34988;SDS011;21192;40.182;44.516;2023-02-07T11:41:03;80.90;;;9.05;;
34988;SDS011;21192;40.182;44.516;2023-02-07T11:43:31;61.72;;;8.45;;
34988;SDS011;21192;40.182;44.516;2023-02-07T11:45:59;64.85;;;7.55;;
34988;SDS011;21192;40.182;44.516;2023-02-07T11:48:33;66.15;;;8.80;;
34988;SDS011;21192;40.182;44.516;2023-02-07T11:51:03;61.50;;;8.43;;
34988;SDS011;21192;40.182;44.516;2023-02-07T11:56:30;75.05;;;9.73;;
34988;SDS011;21192;40.182;44.516;2023-02-07T11:59:03;70.57;;;9.00;;
34988;SDS011;21192;40.182;44.516;2023-02-07T12:01:32;58.75;;;8.10;;
34988;SDS011;21192;40.182;44.516;2023-02-07T12:03:59;71.38;;;8.95;;
34988;SDS011;21192;40.182;44.516;2023-02-07T12:07:07;87.45;;;10.35;;
34988;SDS011;21192;40.182;44.516;2023-02-07T12:09:50;75.50;;;9.40;;
34988;SDS011;21192;40.182;44.516;2023-02-07T12:12:46;86.57;;;10.77;;
34988;SDS011;21192;40.182;44.516;2023-02-07T12:15:22;83.15;;;15.65;;
34988;SDS011;21192;40.182;44.516;2023-02-07T12:20:25;97.25;;;17.15;;
34988;SDS011;21192;40.182;44.516;2023-02-07T12:22:57;77.97;;;12.80;;
34988;SDS011;21192;40.182;44.516;2023-02-07T12:25:41;93.95;;;14.25;;
34988;SDS011;21192;40.182;44.516;2023-02-07T12:31:21;78.68;;;10.80;;
34988;SDS011;21192;40.182;44.516;2023-02-07T12:36:30;81.20;;;13.75;;
34988;SDS011;21192;40.182;44.516;2023-02-07T12:39:08;80.75;;;14.95;;
34988;SDS011;21192;40.182;44.516;2023-02-07T12:41:52;92.18;;;17.30;;
34988;SDS011;21192;40.182;44.516;2023-02-07T12:44:24;93.30;;;13.73;;
34988;SDS011;21192;40.182;44.516;2023-02-07T12:57:59;92.63;;;15.63;;
34988;SDS011;21192;40.182;44.516;2023-02-07T13:01:10;85.65;;;17.35;;
34988;SDS011;21192;40.182;44.516;2023-02-07T13:09:23;86.68;;;15.00;;
34988;SDS011;21192;40.182;44.516;2023-02-07T13:14:35;84.03;;;14.10;;
34988;SDS011;21192;40.182;44.516;2023-02-07T13:20:08;88.40;;;14.20;;
34988;SDS011;21192;40.182;44.516;2023-02-07T13:22:52;80.40;;;12.85;;
34988;SDS011;21192;40.182;44.516;2023-02-07T13:25:29;86.30;;;13.05;;
34988;SDS011;21192;40.182;44.516;2023-02-07T13:28:09;88.95;;;14.48;;
34988;SDS011;21192;40.182;44.516;2023-02-07T13:30:46;91.50;;;14.63;;
34988;SDS011;21192;40.182;44.516;2023-02-07T13:33:27;99.45;;;13.40;;
34988;SDS011;21192;40.182;44.516;2023-02-07T13:39:00;90.47;;;12.60;;
34988;SDS011;21192;40.182;44.516;2023-02-07T13:41:51;44.47;;;10.82;;
34988;SDS011;21192;40.182;44.516;2023-02-07T13:47:12;24.50;;;7.15;;
34988;SDS011;21192;40.182;44.516;2023-02-07T13:49:49;15.80;;;5.60;;
34988;SDS011;21192;40.182;44.516;2023-02-07T13:55:09;15.10;;;5.60;;
34988;SDS011;21192;40.182;44.516;2023-02-07T13:57:45;20.00;;;5.90;;
34988;SDS011;21192;40.182;44.516;2023-02-07T14:03:34;13.90;;;7.50;;
34988;SDS011;21192;40.182;44.516;2023-02-07T14:06:23;25.63;;;11.55;;
34988;SDS011;21192;40.182;44.516;2023-02-07T14:09:00;18.73;;;7.53;;
34988;SDS011;21192;40.182;44.516;2023-02-07T14:11:32;17.95;;;9.07;;
34988;SDS011;21192;40.182;44.516;2023-02-07T14:14:05;16.13;;;6.53;;
34988;SDS011;21192;40.182;44.516;2023-02-07T14:16:54;15.82;;;7.20;;
34988;SDS011;21192;40.182;44.516;2023-02-07T14:22:14;20.83;;;8.25;;
34988;SDS011;21192;40.182;44.516;2023-02-07T14:24:49;15.45;;;6.78;;
34988;SDS011;21192;40.182;44.516;2023-02-07T14:30:14;10.80;;;5.13;;
34988;SDS011;21192;40.182;44.516;2023-02-07T14:35:31;11.90;;;5.32;;
34988;SDS011;21192;40.182;44.516;2023-02-07T14:43:22;14.48;;;5.03;;
34988;SDS011;21192;40.182;44.516;2023-02-07T14:53:43;12.02;;;5.38;;
34988;SDS011;21192;40.182;44.516;2023-02-07T14:59:05;10.73;;;4.45;;
34988;SDS011;21192;40.182;44.516;2023-02-07T15:01:35;8.48;;;3.75;;
34988;SDS011;21192;40.182;44.516;2023-02-07T15:04:05;14.13;;;5.15;;
34988;SDS011;21192;40.182;44.516;2023-02-07T15:06:35;10.52;;;4.15;;
34988;SDS011;21192;40.182;44.516;2023-02-07T15:09:10;16.70;;;6.88;;
34988;SDS011;21192;40.182;44.516;2023-02-07T15:11:46;14.63;;;5.78;;
34988;SDS011;21192;40.182;44.516;2023-02-07T15:17:08;29.20;;;11.20;;
34988;SDS011;21192;40.182;44.516;2023-02-07T15:19:35;19.63;;;9.32;;
34988;SDS011;21192;40.182;44.516;2023-02-07T15:22:05;15.25;;;7.75;;
34988;SDS011;21192;40.182;44.516;2023-02-07T15:24:40;16.50;;;8.77;;
34988;SDS011;21192;40.182;44.516;2023-02-07T15:27:18;13.43;;;8.07;;
34988;SDS011;21192;40.182;44.516;2023-02-07T15:29:58;20.05;;;10.50;;
34988;SDS011;21192;40.182;44.516;2023-02-07T15:32:27;18.00;;;10.07;;
34988;SDS011;21192;40.182;44.516;2023-02-07T15:35:05;19.60;;;10.43;;
34988;SDS011;21192;40.182;44.516;2023-02-07T15:37:42;13.50;;;8.23;;
34988;SDS011;21192;40.182;44.516;2023-02-07T15:40:12;18.42;;;9.55;;
34988;SDS011;21192;40.182;44.516;2023-02-07T15:42:52;32.30;;;15.75;;
34988;SDS011;21192;40.182;44.516;2023-02-07T15:45:24;15.23;;;8.00;;
34988;SDS011;21192;40.182;44.516;2023-02-07T15:47:56;23.50;;;11.68;;
34988;SDS011;21192;40.182;44.516;2023-02-07T15:50:24;19.27;;;10.27;;
34988;SDS011;21192;40.182;44.516;2023-02-07T15:52:52;19.23;;;11.38;;
34988;SDS011;21192;40.182;44.516;2023-02-07T15:58:00;14.60;;;8.07;;
34988;SDS011;21192;40.182;44.516;2023-02-07T16:00:28;13.55;;;7.25;;
34988;SDS011;21192;40.182;44.516;2023-02-07T16:03:01;28.42;;;15.52;;
34988;SDS011;21192;40.182;44.516;2023-02-07T16:05:44;25.58;;;14.85;;
34988;SDS011;21192;40.182;44.516;2023-02-07T16:08:27;18.30;;;10.35;;
34988;SDS011;21192;40.182;44.516;2023-02-07T16:13:48;17.17;;;9.20;;
34988;SDS011;21192;40.182;44.516;2023-02-07T16:16:25;17.25;;;9.43;;
34988;SDS011;21192;40.182;44.516;2023-02-07T16:24:23;16.90;;;9.43;;
34988;SDS011;21192;40.182;44.516;2023-02-07T16:26:51;17.23;;;9.60;;
34988;SDS011;21192;40.182;44.516;2023-02-07T16:29:19;15.85;;;10.07;;
34988;SDS011;21192;40.182;44.516;2023-02-07T16:31:47;17.85;;;9.95;;
34988;SDS011;21192;40.182;44.516;2023-02-07T16:34:14;16.05;;;9.43;;
34988;SDS011;21192;40.182;44.516;2023-02-07T16:36:42;13.18;;;8.63;;
34988;SDS011;21192;40.182;44.516;2023-02-07T16:39:08;12.20;;;8.50;;
34988;SDS011;21192;40.182;44.516;2023-02-07T16:41:36;12.65;;;8.10;;
34988;SDS011;21192;40.182;44.516;2023-02-07T16:44:06;13.98;;;9.48;;
34988;SDS011;21192;40.182;44.516;2023-02-07T16:46:35;18.30;;;10.98;;
34988;SDS011;21192;40.182;44.516;2023-02-07T16:49:08;29.13;;;16.30;;
34988;SDS011;21192;40.182;44.516;2023-02-07T16:51:42;31.13;;;18.00;;
34988;SDS011;21192;40.182;44.516;2023-02-07T16:54:08;38.53;;;21.60;;